Canefield Airport

Partly cloudy with slight dust haze
31oC (88oF)

Partly cloudy with slight dust haze


Winds: North westerly @ 04kts / 07km/h

Humidity: 68%

Barometric Pressure: 1015 mb

Accumulated Rainfall for August: 0.0 mm

Updated: 15:00 local time (19:00 UTC)

Douglas-Charles Airport

Cloudy with slight dust haze
30oC (86oF)

Cloudy with slight dust haze


Winds: East south easterly @ 10kts / 19m/h

Humidity: 75%

Barometric Pressure: 1017 mb

Accumulated Rainfall for August: 0.0 mm

Updated: 15:00 local time (19:00 UTC)

Satellite Imagery

Satellite Imagery
Click image for larger view. (Source: National Hurricane Center).

Aviation Routine Report (METAR)

Douglas-Charles: METAR TDPD 011900Z 10008KT 9999 BKN016 30/25 Q1017=
Canefield: METAR TDCF 011900Z 32004KT 9999 SCT018 31/24 Q1015=